sensor_id;sensor_type;location;lat;lon;timestamp;temperature;humidity
18444;DHT22;9350;53.176;8.194;2022-12-05T00:00:10;4.40;99.90
18444;DHT22;9350;53.176;8.194;2022-12-05T00:02:37;4.40;99.90
18444;DHT22;9350;53.176;8.194;2022-12-05T00:05:04;4.40;99.90
18444;DHT22;9350;53.176;8.194;2022-12-05T00:07:32;4.50;99.90
18444;DHT22;9350;53.176;8.194;2022-12-05T00:09:59;4.50;99.90
18444;DHT22;9350;53.176;8.194;2022-12-05T00:12:26;4.50;99.90
18444;DHT22;9350;53.176;8.194;2022-12-05T00:14:53;4.50;99.90
18444;DHT22;9350;53.176;8.194;2022-12-05T00:17:19;4.50;99.90
18444;DHT22;9350;53.176;8.194;2022-12-05T00:19:46;4.40;99.90
18444;DHT22;9350;53.176;8.194;2022-12-05T00:22:13;4.50;99.90
18444;DHT22;9350;53.176;8.194;2022-12-05T00:24:41;4.50;99.90
18444;DHT22;9350;53.176;8.194;2022-12-05T00:27:08;4.50;99.90
18444;DHT22;9350;53.176;8.194;2022-12-05T00:29:35;4.60;99.90
18444;DHT22;9350;53.176;8.194;2022-12-05T00:32:02;4.40;99.90
18444;DHT22;9350;53.176;8.194;2022-12-05T00:34:29;4.50;99.90
18444;DHT22;9350;53.176;8.194;2022-12-05T00:36:56;4.50;99.90
18444;DHT22;9350;53.176;8.194;2022-12-05T00:39:22;4.50;99.90
18444;DHT22;9350;53.176;8.194;2022-12-05T00:41:50;4.50;99.90
18444;DHT22;9350;53.176;8.194;2022-12-05T00:44:18;4.50;99.90
18444;DHT22;9350;53.176;8.194;2022-12-05T00:46:45;4.50;99.90
18444;DHT22;9350;53.176;8.194;2022-12-05T00:49:11;4.50;99.90
18444;DHT22;9350;53.176;8.194;2022-12-05T00:51:40;4.50;99.90
18444;DHT22;9350;53.176;8.194;2022-12-05T00:54:09;4.50;99.90
18444;DHT22;9350;53.176;8.194;2022-12-05T00:56:36;4.50;99.90
18444;DHT22;9350;53.176;8.194;2022-12-05T00:59:05;4.60;99.90
18444;DHT22;9350;53.176;8.194;2022-12-05T01:01:34;4.50;99.90
18444;DHT22;9350;53.176;8.194;2022-12-05T01:04:06;4.50;99.90
18444;DHT22;9350;53.176;8.194;2022-12-05T01:06:34;4.60;99.90
18444;DHT22;9350;53.176;8.194;2022-12-05T01:09:01;4.60;99.90
18444;DHT22;9350;53.176;8.194;2022-12-05T01:11:28;4.60;99.90
18444;DHT22;9350;53.176;8.194;2022-12-05T01:13:55;4.60;99.90
18444;DHT22;9350;53.176;8.194;2022-12-05T01:16:26;4.60;99.90
18444;DHT22;9350;53.176;8.194;2022-12-05T01:18:53;4.60;99.90
18444;DHT22;9350;53.176;8.194;2022-12-05T01:21:21;4.50;99.90
18444;DHT22;9350;53.176;8.194;2022-12-05T01:23:48;4.50;99.90
18444;DHT22;9350;53.176;8.194;2022-12-05T01:26:17;4.60;99.90
18444;DHT22;9350;53.176;8.194;2022-12-05T01:28:45;4.60;99.90
18444;DHT22;9350;53.176;8.194;2022-12-05T01:31:16;4.50;99.90
18444;DHT22;9350;53.176;8.194;2022-12-05T01:33:46;4.60;99.90
18444;DHT22;9350;53.176;8.194;2022-12-05T01:36:13;4.60;99.90
18444;DHT22;9350;53.176;8.194;2022-12-05T01:38:40;4.60;99.90
18444;DHT22;9350;53.176;8.194;2022-12-05T01:41:11;4.60;99.90
18444;DHT22;9350;53.176;8.194;2022-12-05T01:43:53;4.50;99.90
18444;DHT22;9350;53.176;8.194;2022-12-05T01:46:20;4.60;99.90
18444;DHT22;9350;53.176;8.194;2022-12-05T01:48:49;4.50;99.90
18444;DHT22;9350;53.176;8.194;2022-12-05T01:51:17;4.50;99.90
18444;DHT22;9350;53.176;8.194;2022-12-05T01:53:43;4.60;99.90
18444;DHT22;9350;53.176;8.194;2022-12-05T01:56:11;4.60;99.90
18444;DHT22;9350;53.176;8.194;2022-12-05T01:58:41;4.60;99.90
18444;DHT22;9350;53.176;8.194;2022-12-05T02:01:10;4.50;99.90
18444;DHT22;9350;53.176;8.194;2022-12-05T02:03:37;4.50;99.90
18444;DHT22;9350;53.176;8.194;2022-12-05T02:06:08;4.60;99.90
18444;DHT22;9350;53.176;8.194;2022-12-05T02:08:35;4.60;99.90
18444;DHT22;9350;53.176;8.194;2022-12-05T02:11:05;4.50;99.90
18444;DHT22;9350;53.176;8.194;2022-12-05T02:13:53;4.50;99.90
18444;DHT22;9350;53.176;8.194;2022-12-05T02:16:36;4.60;99.90
18444;DHT22;9350;53.176;8.194;2022-12-05T02:19:20;4.60;99.90
18444;DHT22;9350;53.176;8.194;2022-12-05T02:22:05;4.60;99.90
18444;DHT22;9350;53.176;8.194;2022-12-05T02:25:04;4.60;99.90
18444;DHT22;9350;53.176;8.194;2022-12-05T02:27:55;4.60;99.90
18444;DHT22;9350;53.176;8.194;2022-12-05T02:30:33;4.60;99.90
18444;DHT22;9350;53.176;8.194;2022-12-05T02:33:09;4.50;99.90
18444;DHT22;9350;53.176;8.194;2022-12-05T02:35:44;4.60;99.90
18444;DHT22;9350;53.176;8.194;2022-12-05T02:38:20;4.70;99.90
18444;DHT22;9350;53.176;8.194;2022-12-05T02:40:58;4.60;99.90
18444;DHT22;9350;53.176;8.194;2022-12-05T02:43:30;4.60;99.90
18444;DHT22;9350;53.176;8.194;2022-12-05T02:46:02;4.60;99.90
18444;DHT22;9350;53.176;8.194;2022-12-05T02:48:30;4.60;99.90
18444;DHT22;9350;53.176;8.194;2022-12-05T02:50:59;4.60;99.90
18444;DHT22;9350;53.176;8.194;2022-12-05T02:53:28;4.50;99.90
18444;DHT22;9350;53.176;8.194;2022-12-05T02:55:57;4.60;99.90
18444;DHT22;9350;53.176;8.194;2022-12-05T02:58:29;4.70;99.90
18444;DHT22;9350;53.176;8.194;2022-12-05T03:00:59;4.50;99.90
18444;DHT22;9350;53.176;8.194;2022-12-05T03:03:26;4.60;99.90
18444;DHT22;9350;53.176;8.194;2022-12-05T03:06:00;4.60;99.90
18444;DHT22;9350;53.176;8.194;2022-12-05T03:08:31;4.50;99.90
18444;DHT22;9350;53.176;8.194;2022-12-05T03:11:01;4.70;99.90
18444;DHT22;9350;53.176;8.194;2022-12-05T03:13:32;4.70;99.90
18444;DHT22;9350;53.176;8.194;2022-12-05T03:16:05;4.80;99.90
18444;DHT22;9350;53.176;8.194;2022-12-05T03:18:36;4.70;99.90
18444;DHT22;9350;53.176;8.194;2022-12-05T03:21:07;4.50;99.90
18444;DHT22;9350;53.176;8.194;2022-12-05T03:23:38;4.70;99.90
18444;DHT22;9350;53.176;8.194;2022-12-05T03:26:15;4.70;99.90
18444;DHT22;9350;53.176;8.194;2022-12-05T03:28:51;4.60;99.90
18444;DHT22;9350;53.176;8.194;2022-12-05T03:31:30;4.60;99.90
18444;DHT22;9350;53.176;8.194;2022-12-05T03:34:02;4.70;99.90
18444;DHT22;9350;53.176;8.194;2022-12-05T03:36:38;4.70;99.90
18444;DHT22;9350;53.176;8.194;2022-12-05T03:39:12;4.70;99.90
18444;DHT22;9350;53.176;8.194;2022-12-05T03:41:48;4.70;99.90
18444;DHT22;9350;53.176;8.194;2022-12-05T03:44:19;4.70;99.90
18444;DHT22;9350;53.176;8.194;2022-12-05T03:46:53;4.70;99.90
18444;DHT22;9350;53.176;8.194;2022-12-05T03:49:31;4.70;99.90
18444;DHT22;9350;53.176;8.194;2022-12-05T03:52:05;4.70;99.90
18444;DHT22;9350;53.176;8.194;2022-12-05T03:54:36;4.70;99.90
18444;DHT22;9350;53.176;8.194;2022-12-05T03:57:07;4.70;99.90
18444;DHT22;9350;53.176;8.194;2022-12-05T03:59:38;4.70;99.90
18444;DHT22;9350;53.176;8.194;2022-12-05T04:02:11;4.60;99.90
18444;DHT22;9350;53.176;8.194;2022-12-05T04:04:45;4.60;99.90
18444;DHT22;9350;53.176;8.194;2022-12-05T04:07:14;4.70;99.90
18444;DHT22;9350;53.176;8.194;2022-12-05T04:09:44;4.60;99.90
18444;DHT22;9350;53.176;8.194;2022-12-05T04:12:18;4.60;99.90
18444;DHT22;9350;53.176;8.194;2022-12-05T04:14:50;4.70;99.90
18444;DHT22;9350;53.176;8.194;2022-12-05T04:17:23;4.60;99.90
18444;DHT22;9350;53.176;8.194;2022-12-05T04:19:55;4.70;99.90
18444;DHT22;9350;53.176;8.194;2022-12-05T04:22:46;4.50;99.90
18444;DHT22;9350;53.176;8.194;2022-12-05T04:25:14;4.60;99.90
18444;DHT22;9350;53.176;8.194;2022-12-05T04:28:09;4.70;99.90
18444;DHT22;9350;53.176;8.194;2022-12-05T04:30:43;4.70;99.90
18444;DHT22;9350;53.176;8.194;2022-12-05T04:33:16;4.60;99.90
18444;DHT22;9350;53.176;8.194;2022-12-05T04:35:49;4.60;99.90
18444;DHT22;9350;53.176;8.194;2022-12-05T04:38:23;4.60;99.90
18444;DHT22;9350;53.176;8.194;2022-12-05T04:40:53;4.60;99.90
18444;DHT22;9350;53.176;8.194;2022-12-05T04:43:22;4.60;99.90
18444;DHT22;9350;53.176;8.194;2022-12-05T04:45:51;4.70;99.90
18444;DHT22;9350;53.176;8.194;2022-12-05T04:48:21;4.70;99.90
18444;DHT22;9350;53.176;8.194;2022-12-05T04:50:50;4.70;99.90
18444;DHT22;9350;53.176;8.194;2022-12-05T04:53:20;4.70;99.90
18444;DHT22;9350;53.176;8.194;2022-12-05T04:55:50;4.70;99.90
18444;DHT22;9350;53.176;8.194;2022-12-05T04:58:19;4.70;99.90
18444;DHT22;9350;53.176;8.194;2022-12-05T05:00:58;4.70;99.90
18444;DHT22;9350;53.176;8.194;2022-12-05T05:03:33;4.80;99.90
18444;DHT22;9350;53.176;8.194;2022-12-05T05:06:02;4.70;99.90
18444;DHT22;9350;53.176;8.194;2022-12-05T05:08:29;4.70;99.90
18444;DHT22;9350;53.176;8.194;2022-12-05T05:11:08;4.70;99.90
18444;DHT22;9350;53.176;8.194;2022-12-05T05:13:35;4.80;99.90
18444;DHT22;9350;53.176;8.194;2022-12-05T05:16:02;4.70;99.90
18444;DHT22;9350;53.176;8.194;2022-12-05T05:18:30;4.70;99.90
18444;DHT22;9350;53.176;8.194;2022-12-05T05:20:56;4.70;99.90
18444;DHT22;9350;53.176;8.194;2022-12-05T05:23:23;4.70;99.90
18444;DHT22;9350;53.176;8.194;2022-12-05T05:25:54;4.70;99.90
18444;DHT22;9350;53.176;8.194;2022-12-05T05:28:21;4.70;99.90
18444;DHT22;9350;53.176;8.194;2022-12-05T05:30:48;4.80;99.90
18444;DHT22;9350;53.176;8.194;2022-12-05T05:33:15;4.80;99.90
18444;DHT22;9350;53.176;8.194;2022-12-05T05:35:43;4.80;99.90
18444;DHT22;9350;53.176;8.194;2022-12-05T05:38:10;4.80;99.90
18444;DHT22;9350;53.176;8.194;2022-12-05T05:40:36;4.80;99.90
18444;DHT22;9350;53.176;8.194;2022-12-05T05:43:03;4.80;99.90
18444;DHT22;9350;53.176;8.194;2022-12-05T05:45:30;4.90;99.90
18444;DHT22;9350;53.176;8.194;2022-12-05T05:47:57;4.80;99.90
18444;DHT22;9350;53.176;8.194;2022-12-05T05:50:23;4.80;99.90
18444;DHT22;9350;53.176;8.194;2022-12-05T05:52:51;4.80;99.90
18444;DHT22;9350;53.176;8.194;2022-12-05T05:55:18;4.80;99.90
18444;DHT22;9350;53.176;8.194;2022-12-05T05:57:45;4.80;99.90
18444;DHT22;9350;53.176;8.194;2022-12-05T06:00:13;4.80;99.90
18444;DHT22;9350;53.176;8.194;2022-12-05T06:02:40;4.80;99.90
18444;DHT22;9350;53.176;8.194;2022-12-05T06:05:07;4.80;99.90
18444;DHT22;9350;53.176;8.194;2022-12-05T06:07:34;4.80;99.90
18444;DHT22;9350;53.176;8.194;2022-12-05T06:10:02;4.90;99.90
18444;DHT22;9350;53.176;8.194;2022-12-05T06:12:29;4.90;99.90
18444;DHT22;9350;53.176;8.194;2022-12-05T06:14:56;4.90;99.90
18444;DHT22;9350;53.176;8.194;2022-12-05T06:17:23;4.90;99.90
18444;DHT22;9350;53.176;8.194;2022-12-05T06:19:50;4.90;99.90
18444;DHT22;9350;53.176;8.194;2022-12-05T06:22:16;5.00;99.90
18444;DHT22;9350;53.176;8.194;2022-12-05T06:24:43;5.00;99.90
18444;DHT22;9350;53.176;8.194;2022-12-05T06:27:11;5.00;99.90
18444;DHT22;9350;53.176;8.194;2022-12-05T06:29:38;5.00;99.90
18444;DHT22;9350;53.176;8.194;2022-12-05T06:32:05;5.10;99.90
18444;DHT22;9350;53.176;8.194;2022-12-05T06:34:31;5.10;99.90
18444;DHT22;9350;53.176;8.194;2022-12-05T06:36:59;5.10;99.90
18444;DHT22;9350;53.176;8.194;2022-12-05T06:39:26;5.10;99.90
18444;DHT22;9350;53.176;8.194;2022-12-05T06:41:53;5.00;99.90
18444;DHT22;9350;53.176;8.194;2022-12-05T06:44:21;5.10;99.90
18444;DHT22;9350;53.176;8.194;2022-12-05T06:46:51;5.10;99.90
18444;DHT22;9350;53.176;8.194;2022-12-05T06:49:18;5.00;99.90
18444;DHT22;9350;53.176;8.194;2022-12-05T06:51:45;5.00;99.90
18444;DHT22;9350;53.176;8.194;2022-12-05T06:54:13;5.20;99.90
18444;DHT22;9350;53.176;8.194;2022-12-05T06:56:39;5.00;99.90
18444;DHT22;9350;53.176;8.194;2022-12-05T06:59:06;5.20;99.90
18444;DHT22;9350;53.176;8.194;2022-12-05T07:01:34;5.10;99.90
18444;DHT22;9350;53.176;8.194;2022-12-05T07:04:04;5.10;99.90
18444;DHT22;9350;53.176;8.194;2022-12-05T07:06:31;5.00;99.90
18444;DHT22;9350;53.176;8.194;2022-12-05T07:08:58;5.10;99.90
18444;DHT22;9350;53.176;8.194;2022-12-05T07:11:26;5.20;99.90
18444;DHT22;9350;53.176;8.194;2022-12-05T07:13:52;5.10;99.90
18444;DHT22;9350;53.176;8.194;2022-12-05T07:16:19;5.20;99.90
18444;DHT22;9350;53.176;8.194;2022-12-05T07:18:47;5.20;99.90
18444;DHT22;9350;53.176;8.194;2022-12-05T07:21:15;5.20;99.90
18444;DHT22;9350;53.176;8.194;2022-12-05T07:23:44;5.10;99.90
18444;DHT22;9350;53.176;8.194;2022-12-05T07:26:13;5.10;99.90
18444;DHT22;9350;53.176;8.194;2022-12-05T07:28:40;5.10;99.90
18444;DHT22;9350;53.176;8.194;2022-12-05T07:31:08;5.10;99.90
18444;DHT22;9350;53.176;8.194;2022-12-05T07:33:37;5.10;99.90
18444;DHT22;9350;53.176;8.194;2022-12-05T07:36:07;5.10;99.90
18444;DHT22;9350;53.176;8.194;2022-12-05T07:38:35;5.10;99.90
18444;DHT22;9350;53.176;8.194;2022-12-05T07:41:03;5.10;99.90
18444;DHT22;9350;53.176;8.194;2022-12-05T07:43:31;5.10;99.90
18444;DHT22;9350;53.176;8.194;2022-12-05T07:46:01;5.10;99.90
18444;DHT22;9350;53.176;8.194;2022-12-05T07:48:28;5.20;99.90
18444;DHT22;9350;53.176;8.194;2022-12-05T07:50:58;5.20;99.90
18444;DHT22;9350;53.176;8.194;2022-12-05T07:53:26;5.20;99.90
18444;DHT22;9350;53.176;8.194;2022-12-05T07:55:53;5.20;99.90
18444;DHT22;9350;53.176;8.194;2022-12-05T07:58:19;5.20;99.90
18444;DHT22;9350;53.176;8.194;2022-12-05T08:00:46;5.10;99.90
18444;DHT22;9350;53.176;8.194;2022-12-05T08:03:13;5.10;99.90
18444;DHT22;9350;53.176;8.194;2022-12-05T08:05:39;5.20;99.90
18444;DHT22;9350;53.176;8.194;2022-12-05T08:08:06;5.20;99.90
18444;DHT22;9350;53.176;8.194;2022-12-05T08:10:34;5.10;99.90
18444;DHT22;9350;53.176;8.194;2022-12-05T08:13:01;5.20;99.90
18444;DHT22;9350;53.176;8.194;2022-12-05T08:15:28;5.20;99.90
18444;DHT22;9350;53.176;8.194;2022-12-05T08:17:55;5.10;99.90
18444;DHT22;9350;53.176;8.194;2022-12-05T08:20:21;5.20;99.90
18444;DHT22;9350;53.176;8.194;2022-12-05T08:22:50;5.10;99.90
18444;DHT22;9350;53.176;8.194;2022-12-05T08:25:17;5.30;99.90
18444;DHT22;9350;53.176;8.194;2022-12-05T08:27:45;5.10;99.90
18444;DHT22;9350;53.176;8.194;2022-12-05T08:30:12;5.10;99.90
18444;DHT22;9350;53.176;8.194;2022-12-05T08:32:39;5.10;99.90
18444;DHT22;9350;53.176;8.194;2022-12-05T08:35:06;5.20;99.90
18444;DHT22;9350;53.176;8.194;2022-12-05T08:37:34;5.20;99.90
18444;DHT22;9350;53.176;8.194;2022-12-05T08:40:00;5.20;99.90
18444;DHT22;9350;53.176;8.194;2022-12-05T08:42:27;5.10;99.90
18444;DHT22;9350;53.176;8.194;2022-12-05T08:44:55;5.20;99.90
18444;DHT22;9350;53.176;8.194;2022-12-05T08:47:22;5.10;99.90
18444;DHT22;9350;53.176;8.194;2022-12-05T08:49:48;5.20;99.90
18444;DHT22;9350;53.176;8.194;2022-12-05T08:52:15;5.10;99.90
18444;DHT22;9350;53.176;8.194;2022-12-05T08:54:42;5.20;99.90
18444;DHT22;9350;53.176;8.194;2022-12-05T08:57:09;5.10;99.90
18444;DHT22;9350;53.176;8.194;2022-12-05T08:59:35;5.10;99.90
18444;DHT22;9350;53.176;8.194;2022-12-05T09:02:03;5.20;99.90
18444;DHT22;9350;53.176;8.194;2022-12-05T09:04:30;5.10;99.90
18444;DHT22;9350;53.176;8.194;2022-12-05T09:06:57;5.20;99.90
18444;DHT22;9350;53.176;8.194;2022-12-05T09:09:28;5.20;99.90
18444;DHT22;9350;53.176;8.194;2022-12-05T09:11:54;5.20;99.90
18444;DHT22;9350;53.176;8.194;2022-12-05T09:14:22;5.20;99.90
18444;DHT22;9350;53.176;8.194;2022-12-05T09:16:48;5.20;99.90
18444;DHT22;9350;53.176;8.194;2022-12-05T09:19:18;5.10;99.90
18444;DHT22;9350;53.176;8.194;2022-12-05T09:21:46;5.10;99.90
18444;DHT22;9350;53.176;8.194;2022-12-05T09:24:12;5.10;99.90
18444;DHT22;9350;53.176;8.194;2022-12-05T09:26:40;5.20;99.90
18444;DHT22;9350;53.176;8.194;2022-12-05T09:29:07;5.20;99.90
18444;DHT22;9350;53.176;8.194;2022-12-05T09:31:34;5.10;99.90
18444;DHT22;9350;53.176;8.194;2022-12-05T09:34:01;5.20;99.90
18444;DHT22;9350;53.176;8.194;2022-12-05T09:36:30;5.20;99.90
18444;DHT22;9350;53.176;8.194;2022-12-05T09:39:00;5.20;99.90
18444;DHT22;9350;53.176;8.194;2022-12-05T09:47:28;5.20;99.90
18444;DHT22;9350;53.176;8.194;2022-12-05T09:50:03;5.20;99.90
18444;DHT22;9350;53.176;8.194;2022-12-05T09:52:42;5.20;99.90
18444;DHT22;9350;53.176;8.194;2022-12-05T09:55:12;5.20;99.90
18444;DHT22;9350;53.176;8.194;2022-12-05T09:57:43;5.20;99.90
18444;DHT22;9350;53.176;8.194;2022-12-05T10:00:12;5.20;99.90
18444;DHT22;9350;53.176;8.194;2022-12-05T10:02:46;5.20;99.90
18444;DHT22;9350;53.176;8.194;2022-12-05T10:05:18;5.20;99.90
18444;DHT22;9350;53.176;8.194;2022-12-05T10:07:55;5.20;99.90
18444;DHT22;9350;53.176;8.194;2022-12-05T10:10:28;5.20;99.90
18444;DHT22;9350;53.176;8.194;2022-12-05T10:13:17;5.20;99.90
18444;DHT22;9350;53.176;8.194;2022-12-05T10:15:47;5.20;99.90
18444;DHT22;9350;53.176;8.194;2022-12-05T10:18:23;5.20;99.90
18444;DHT22;9350;53.176;8.194;2022-12-05T10:20:56;5.20;99.90
18444;DHT22;9350;53.176;8.194;2022-12-05T10:23:29;5.20;99.90
18444;DHT22;9350;53.176;8.194;2022-12-05T10:25:59;5.20;99.90
18444;DHT22;9350;53.176;8.194;2022-12-05T10:28:31;5.20;99.90
18444;DHT22;9350;53.176;8.194;2022-12-05T10:31:01;5.20;99.90
18444;DHT22;9350;53.176;8.194;2022-12-05T10:33:35;5.20;99.90
18444;DHT22;9350;53.176;8.194;2022-12-05T10:36:08;5.20;99.90
18444;DHT22;9350;53.176;8.194;2022-12-05T10:38:37;5.20;99.90
18444;DHT22;9350;53.176;8.194;2022-12-05T10:41:06;5.20;99.90
18444;DHT22;9350;53.176;8.194;2022-12-05T10:43:35;5.20;99.90
18444;DHT22;9350;53.176;8.194;2022-12-05T10:46:03;5.20;99.90
18444;DHT22;9350;53.176;8.194;2022-12-05T10:48:34;5.30;99.90
18444;DHT22;9350;53.176;8.194;2022-12-05T10:51:02;5.20;99.90
18444;DHT22;9350;53.176;8.194;2022-12-05T10:53:38;5.20;99.90
18444;DHT22;9350;53.176;8.194;2022-12-05T10:56:39;5.20;99.90
18444;DHT22;9350;53.176;8.194;2022-12-05T10:59:07;5.20;99.90
18444;DHT22;9350;53.176;8.194;2022-12-05T11:01:35;5.20;99.90
18444;DHT22;9350;53.176;8.194;2022-12-05T11:04:08;5.20;99.90
18444;DHT22;9350;53.176;8.194;2022-12-05T11:06:35;5.30;99.90
18444;DHT22;9350;53.176;8.194;2022-12-05T11:09:11;5.20;99.90
18444;DHT22;9350;53.176;8.194;2022-12-05T11:11:39;5.30;99.90
18444;DHT22;9350;53.176;8.194;2022-12-05T11:14:19;5.20;99.90
18444;DHT22;9350;53.176;8.194;2022-12-05T11:16:51;5.30;99.90
18444;DHT22;9350;53.176;8.194;2022-12-05T11:19:24;5.30;99.90
18444;DHT22;9350;53.176;8.194;2022-12-05T11:21:52;5.20;99.90
18444;DHT22;9350;53.176;8.194;2022-12-05T11:24:23;5.20;99.90
18444;DHT22;9350;53.176;8.194;2022-12-05T11:26:51;5.20;99.90
18444;DHT22;9350;53.176;8.194;2022-12-05T11:29:33;5.20;99.90
18444;DHT22;9350;53.176;8.194;2022-12-05T11:32:00;5.20;99.90
18444;DHT22;9350;53.176;8.194;2022-12-05T11:34:32;5.20;99.90
18444;DHT22;9350;53.176;8.194;2022-12-05T11:37:04;5.20;99.90
18444;DHT22;9350;53.176;8.194;2022-12-05T11:39:33;5.20;99.90
18444;DHT22;9350;53.176;8.194;2022-12-05T11:42:25;5.20;99.90
18444;DHT22;9350;53.176;8.194;2022-12-05T11:45:15;5.10;99.90
18444;DHT22;9350;53.176;8.194;2022-12-05T11:47:51;5.20;99.90
18444;DHT22;9350;53.176;8.194;2022-12-05T11:50:31;5.30;99.90
18444;DHT22;9350;53.176;8.194;2022-12-05T11:53:12;5.30;99.90
18444;DHT22;9350;53.176;8.194;2022-12-05T11:55:42;5.20;99.90
18444;DHT22;9350;53.176;8.194;2022-12-05T11:58:27;5.30;99.90
18444;DHT22;9350;53.176;8.194;2022-12-05T12:01:04;5.20;99.90
18444;DHT22;9350;53.176;8.194;2022-12-05T12:03:47;5.30;99.90
18444;DHT22;9350;53.176;8.194;2022-12-05T12:06:26;5.30;99.90
18444;DHT22;9350;53.176;8.194;2022-12-05T12:09:06;5.30;99.90
18444;DHT22;9350;53.176;8.194;2022-12-05T12:11:43;5.20;99.90
18444;DHT22;9350;53.176;8.194;2022-12-05T12:14:19;5.20;99.90
18444;DHT22;9350;53.176;8.194;2022-12-05T12:16:59;5.20;99.90
18444;DHT22;9350;53.176;8.194;2022-12-05T12:19:47;5.20;99.90
18444;DHT22;9350;53.176;8.194;2022-12-05T12:22:26;5.20;99.90
18444;DHT22;9350;53.176;8.194;2022-12-05T12:25:07;5.20;99.90
18444;DHT22;9350;53.176;8.194;2022-12-05T12:27:45;5.20;99.90
18444;DHT22;9350;53.176;8.194;2022-12-05T12:30:18;5.20;99.90
18444;DHT22;9350;53.176;8.194;2022-12-05T12:32:55;5.20;99.90
18444;DHT22;9350;53.176;8.194;2022-12-05T12:35:28;5.20;99.90
18444;DHT22;9350;53.176;8.194;2022-12-05T12:38:11;5.20;99.90
18444;DHT22;9350;53.176;8.194;2022-12-05T12:40:46;5.20;99.90
18444;DHT22;9350;53.176;8.194;2022-12-05T12:43:34;5.10;99.90
18444;DHT22;9350;53.176;8.194;2022-12-05T12:46:15;5.30;99.90
18444;DHT22;9350;53.176;8.194;2022-12-05T12:49:10;5.30;99.90
18444;DHT22;9350;53.176;8.194;2022-12-05T12:51:49;5.30;99.90
18444;DHT22;9350;53.176;8.194;2022-12-05T12:54:30;5.20;99.90
18444;DHT22;9350;53.176;8.194;2022-12-05T12:57:06;5.20;99.90
18444;DHT22;9350;53.176;8.194;2022-12-05T12:59:50;5.20;99.90
18444;DHT22;9350;53.176;8.194;2022-12-05T13:02:23;5.20;99.90
18444;DHT22;9350;53.176;8.194;2022-12-05T13:04:55;5.20;99.90
18444;DHT22;9350;53.176;8.194;2022-12-05T13:07:29;5.10;99.90
18444;DHT22;9350;53.176;8.194;2022-12-05T13:10:02;5.20;99.90
18444;DHT22;9350;53.176;8.194;2022-12-05T13:12:34;5.20;99.90
18444;DHT22;9350;53.176;8.194;2022-12-05T13:15:06;5.20;99.90
18444;DHT22;9350;53.176;8.194;2022-12-05T13:17:38;5.10;99.90
18444;DHT22;9350;53.176;8.194;2022-12-05T13:20:13;5.10;99.90
18444;DHT22;9350;53.176;8.194;2022-12-05T13:22:41;5.10;99.90
18444;DHT22;9350;53.176;8.194;2022-12-05T13:25:13;5.20;99.90
18444;DHT22;9350;53.176;8.194;2022-12-05T13:27:53;5.10;99.90
18444;DHT22;9350;53.176;8.194;2022-12-05T13:30:23;5.10;99.90
18444;DHT22;9350;53.176;8.194;2022-12-05T13:32:55;5.10;99.90
18444;DHT22;9350;53.176;8.194;2022-12-05T13:35:29;5.00;99.90
18444;DHT22;9350;53.176;8.194;2022-12-05T13:38:19;5.00;99.90
18444;DHT22;9350;53.176;8.194;2022-12-05T13:41:04;5.00;99.90
18444;DHT22;9350;53.176;8.194;2022-12-05T13:43:51;5.00;99.90
18444;DHT22;9350;53.176;8.194;2022-12-05T13:46:26;5.00;99.90
18444;DHT22;9350;53.176;8.194;2022-12-05T13:49:00;5.00;99.90
18444;DHT22;9350;53.176;8.194;2022-12-05T13:51:31;5.00;99.90
18444;DHT22;9350;53.176;8.194;2022-12-05T13:54:03;5.00;99.90
18444;DHT22;9350;53.176;8.194;2022-12-05T13:56:46;5.00;99.90
18444;DHT22;9350;53.176;8.194;2022-12-05T14:05:35;4.90;99.90
18444;DHT22;9350;53.176;8.194;2022-12-05T14:11:11;4.90;99.90
18444;DHT22;9350;53.176;8.194;2022-12-05T14:13:40;4.90;99.90
18444;DHT22;9350;53.176;8.194;2022-12-05T14:22:02;5.00;99.90
18444;DHT22;9350;53.176;8.194;2022-12-05T14:24:36;5.00;99.90
18444;DHT22;9350;53.176;8.194;2022-12-05T14:27:10;5.00;99.90
18444;DHT22;9350;53.176;8.194;2022-12-05T14:29:47;4.90;99.90
18444;DHT22;9350;53.176;8.194;2022-12-05T14:32:22;4.90;99.90
18444;DHT22;9350;53.176;8.194;2022-12-05T14:34:55;5.00;99.90
18444;DHT22;9350;53.176;8.194;2022-12-05T14:37:28;5.00;99.90
18444;DHT22;9350;53.176;8.194;2022-12-05T14:39:57;5.00;99.90
18444;DHT22;9350;53.176;8.194;2022-12-05T14:42:36;5.00;99.90
18444;DHT22;9350;53.176;8.194;2022-12-05T14:45:22;4.90;99.90
18444;DHT22;9350;53.176;8.194;2022-12-05T14:47:52;4.90;99.90
18444;DHT22;9350;53.176;8.194;2022-12-05T14:50:41;4.90;99.90
18444;DHT22;9350;53.176;8.194;2022-12-05T14:53:31;4.90;99.90
18444;DHT22;9350;53.176;8.194;2022-12-05T14:58:50;4.90;99.90
18444;DHT22;9350;53.176;8.194;2022-12-05T15:01:22;4.80;99.90
18444;DHT22;9350;53.176;8.194;2022-12-05T15:04:08;4.90;99.90
18444;DHT22;9350;53.176;8.194;2022-12-05T15:06:45;4.90;99.90
18444;DHT22;9350;53.176;8.194;2022-12-05T15:09:28;4.90;99.90
18444;DHT22;9350;53.176;8.194;2022-12-05T15:11:58;4.80;99.90
18444;DHT22;9350;53.176;8.194;2022-12-05T15:14:27;4.90;99.90
18444;DHT22;9350;53.176;8.194;2022-12-05T15:16:57;4.80;99.90
18444;DHT22;9350;53.176;8.194;2022-12-05T15:19:28;4.90;99.90
18444;DHT22;9350;53.176;8.194;2022-12-05T15:21:57;4.80;99.90
18444;DHT22;9350;53.176;8.194;2022-12-05T15:24:35;4.80;99.90
18444;DHT22;9350;53.176;8.194;2022-12-05T15:27:03;4.80;99.90
18444;DHT22;9350;53.176;8.194;2022-12-05T15:29:30;4.80;99.90
18444;DHT22;9350;53.176;8.194;2022-12-05T15:31:58;4.80;99.90
18444;DHT22;9350;53.176;8.194;2022-12-05T15:34:29;4.80;99.90
18444;DHT22;9350;53.176;8.194;2022-12-05T15:36:59;4.70;99.90
18444;DHT22;9350;53.176;8.194;2022-12-05T15:39:49;4.90;99.90
18444;DHT22;9350;53.176;8.194;2022-12-05T15:42:16;4.80;99.90
18444;DHT22;9350;53.176;8.194;2022-12-05T15:44:42;4.80;99.90
18444;DHT22;9350;53.176;8.194;2022-12-05T15:47:19;4.80;99.90
18444;DHT22;9350;53.176;8.194;2022-12-05T15:49:46;4.80;99.90
18444;DHT22;9350;53.176;8.194;2022-12-05T15:52:23;4.80;99.90
18444;DHT22;9350;53.176;8.194;2022-12-05T15:54:56;4.70;99.90
18444;DHT22;9350;53.176;8.194;2022-12-05T15:57:35;4.70;99.90
18444;DHT22;9350;53.176;8.194;2022-12-05T16:00:04;4.70;99.90
18444;DHT22;9350;53.176;8.194;2022-12-05T16:02:38;4.70;99.90
18444;DHT22;9350;53.176;8.194;2022-12-05T16:05:20;4.70;99.90
18444;DHT22;9350;53.176;8.194;2022-12-05T16:07:48;4.70;99.90
18444;DHT22;9350;53.176;8.194;2022-12-05T16:10:17;4.70;99.90
18444;DHT22;9350;53.176;8.194;2022-12-05T16:12:46;4.70;99.90
18444;DHT22;9350;53.176;8.194;2022-12-05T16:15:18;4.70;99.90
18444;DHT22;9350;53.176;8.194;2022-12-05T16:17:51;4.70;99.90
18444;DHT22;9350;53.176;8.194;2022-12-05T16:20:29;4.80;99.90
18444;DHT22;9350;53.176;8.194;2022-12-05T16:22:59;4.70;99.90
18444;DHT22;9350;53.176;8.194;2022-12-05T16:25:29;4.70;99.90
18444;DHT22;9350;53.176;8.194;2022-12-05T16:28:13;4.70;99.90
18444;DHT22;9350;53.176;8.194;2022-12-05T16:30:52;4.70;99.90
18444;DHT22;9350;53.176;8.194;2022-12-05T16:33:20;4.60;99.90
18444;DHT22;9350;53.176;8.194;2022-12-05T16:35:47;4.70;99.90
18444;DHT22;9350;53.176;8.194;2022-12-05T16:38:18;4.70;99.90
18444;DHT22;9350;53.176;8.194;2022-12-05T16:40:55;4.70;99.90
18444;DHT22;9350;53.176;8.194;2022-12-05T16:43:34;4.60;99.90
18444;DHT22;9350;53.176;8.194;2022-12-05T16:46:39;4.60;99.90
18444;DHT22;9350;53.176;8.194;2022-12-05T16:52:10;4.70;99.90
18444;DHT22;9350;53.176;8.194;2022-12-05T16:54:38;4.60;99.90
18444;DHT22;9350;53.176;8.194;2022-12-05T16:57:05;4.60;99.90